Terminal Aerodrome Forecast
Issued by NWS Cleveland, OH

Home | Current Version | Previous Version | Graphics & Text | Print | Product List | Glossary On
Versions: 1 2 3 4 5 6 7 8 9 10 11 12 13 14 15 16
997
FTUS41 KCLE 200527
TAFMFD
TAF
KMFD 200527Z 2006/2106 VRB03KT P6SM SCT250
     FM200900 11003KT 3SM BR BKN250
      TEMPO 2010/2013 1 1/2SM BR
     FM201400 11006KT P6SM BKN250=

USA.gov is the U.S. government's official web portal to all federal, state and local government web resources and services.